This is the latest recevied weather packets stored in our database for station/object KC3UTO. If no packets are shown the sender has not sent any weather packets the latest 10 day(s).
| Time | Temp. | Humidity | Pressure | Rain* | Wind** | Luminosity | Snow |
|---|---|---|---|---|---|---|---|
| 1777691392 | 11.67° C | 68% | 1010.9 hPa | 0 mm | - | 0 W/m² | - |
| 1777691090 | 11.67° C | 69% | 1011 hPa | 0 mm | - | 0 W/m² | - |
| 1777690788 | 11.67° C | 68% | 1010.9 hPa | 0 mm | - | 0 W/m² | - |
| 1777690485 | 11.67° C | 67% | 1011 hPa | 0 mm | - | 0 W/m² | - |
| 1777690183 | 11.67° C | 67% | 1011 hPa | 0 mm | - | 0 W/m² | - |
| 1777689881 | 12.22° C | 66% | 1010.8 hPa | 0 mm | - | 0 W/m² | - |
| 1777689579 | 12.22° C | 65% | 1011 hPa | 0 mm | - | 0 W/m² | - |
| 1777689276 | 12.22° C | 66% | 1010.8 hPa | 0 mm | - | 0 W/m² | - |
| 1777688973 | 12.78° C | 65% | 1011.3 hPa | 0 mm | - | 0 W/m² | - |
| 1777688669 | 12.78° C | 62% | 1011.4 hPa | 0 mm | - | 0 W/m² | - |
| 1777688366 | 12.78° C | 62% | 1011.5 hPa | 0 mm | - | 0 W/m² | - |
| 1777688064 | 12.78° C | 61% | 1011.5 hPa | 0 mm | - | 0 W/m² | - |
| 1777687761 | 12.78° C | 61% | 1011.3 hPa | 0 mm | - | 0 W/m² | - |
| 1777674125 | 16.67° C | 36% | 1009.6 hPa | 0 mm | - | 49 W/m² | - |
| 1777673821 | 16.67° C | 36% | 1009.8 hPa | 0 mm | - | 69 W/m² | - |
| 1777673519 | 16.67° C | 37% | 1009.8 hPa | 0 mm | - | 63 W/m² | - |
| 1777673217 | 16.67° C | 36% | 1009.8 hPa | 0 mm | - | 60 W/m² | - |
| 1777672914 | 16.67° C | 36% | 1009.9 hPa | 0 mm | - | 58 W/m² | - |
| 1777672610 | 17.22° C | 35% | 1010 hPa | 0 mm | - | 71 W/m² | - |
| 1777672306 | 17.22° C | 35% | 1010 hPa | 0 mm | - | 90 W/m² | - |
| 1777672001 | 17.22° C | 35% | 1009.9 hPa | 0 mm | - | 71 W/m² | - |
| 1777671394 | 17.78° C | 35% | 1009.7 hPa | 0 mm | - | 115 W/m² | - |
| 1777671089 | 17.22° C | 34% | 1009.8 hPa | 0 mm | - | 83 W/m² | - |
| 1777670483 | 17.22° C | 34% | 1009.8 hPa | 0 mm | - | 160 W/m² | - |
| 1777670180 | 17.22° C | 35% | 1009.8 hPa | 0 mm | - | 222 W/m² | - |
* Rain latest hour (hover to see other rain measurements)
** Current wind speed in m/s (hover to see current wind gust speed)